Time;durP1;ratioP1;P1;durP2;ratioP2;P2;SDS_P1;SDS_P2;PMS_P1;PMS_P2;Temp;Humidity;BMP_temperature;BMP_pressure;BME280_temperature;BME280_humidity;BME280_pressure;Samples;Min_cycle;Max_cycle;Signal;HPM_P1;HPM_P2
2022/07/22 00:00:54;;;;;;;5.97;3.40;;;18.40;99.90;;;;;;5034935;28;20215;-84
2022/07/22 00:03:19;;;;;;;7.80;4.00;;;18.40;99.90;;;;;;5036215;28;20185;-83
2022/07/22 00:05:46;;;;;;;8.52;3.67;;;18.30;99.90;;;;;;5039022;28;20299;-83
2022/07/22 00:08:11;;;;;;;6.32;3.05;;;18.30;99.90;;;;;;5020606;28;20208;-83
2022/07/22 00:10:38;;;;;;;4.95;3.78;;;18.20;99.90;;;;;;5018898;28;20223;-83
2022/07/22 00:13:04;;;;;;;7.20;3.88;;;18.20;99.90;;;;;;5018424;28;20208;-84
2022/07/22 00:15:29;;;;;;;6.78;3.58;;;18.10;99.90;;;;;;5036012;28;20192;-83
2022/07/22 00:17:55;;;;;;;5.55;3.05;;;18.10;99.90;;;;;;5018362;28;20188;-83
2022/07/22 00:20:21;;;;;;;10.48;3.50;;;18.10;99.90;;;;;;5017614;28;20630;-84
2022/07/22 00:22:47;;;;;;;9.90;3.95;;;18.10;99.90;;;;;;5035769;28;20172;-83
2022/07/22 00:25:13;;;;;;;7.35;3.97;;;18.10;99.90;;;;;;5035464;28;20183;-83
2022/07/22 00:27:39;;;;;;;3.55;2.97;;;18.00;99.90;;;;;;5017551;28;20177;-83
2022/07/22 00:30:05;;;;;;;4.90;3.40;;;18.00;99.90;;;;;;5001536;28;20233;-83
2022/07/22 00:32:30;;;;;;;6.50;3.75;;;18.00;99.90;;;;;;5035396;28;20193;-83
2022/07/22 00:34:56;;;;;;;4.68;3.00;;;18.00;99.90;;;;;;5018296;28;20187;-82
2022/07/22 00:37:22;;;;;;;5.30;3.47;;;18.00;99.90;;;;;;5035603;28;20183;-83
2022/07/22 00:39:48;;;;;;;6.00;3.50;;;18.00;99.90;;;;;;5036010;28;20271;-83
2022/07/22 00:42:14;;;;;;;8.32;3.80;;;17.90;99.90;;;;;;5035803;28;20202;-82
2022/07/22 00:44:39;;;;;;;6.13;3.38;;;17.90;99.90;;;;;;5035530;28;20191;-83
2022/07/22 00:47:05;;;;;;;5.43;3.65;;;17.90;99.90;;;;;;5035450;28;20539;-83
2022/07/22 00:49:31;;;;;;;6.82;3.63;;;17.90;99.90;;;;;;5034159;28;20188;-83
2022/07/22 00:51:57;;;;;;;5.10;3.50;;;17.80;99.90;;;;;;5017597;28;20234;-83
2022/07/22 00:54:23;;;;;;;7.45;3.55;;;17.80;99.90;;;;;;5034825;28;20181;-84
2022/07/22 00:56:49;;;;;;;6.07;3.50;;;17.80;99.90;;;;;;5035370;28;20179;-83
2022/07/22 00:59:15;;;;;;;6.68;3.22;;;17.80;99.90;;;;;;5001101;28;20282;-83
2022/07/22 01:01:40;;;;;;;6.20;3.15;;;17.80;99.90;;;;;;5034067;28;20264;-82
2022/07/22 01:04:06;;;;;;;6.50;3.67;;;17.80;99.90;;;;;;5035150;28;20186;-82
2022/07/22 01:06:32;;;;;;;6.00;3.65;;;17.70;99.90;;;;;;5049525;28;20260;-84
2022/07/22 01:08:59;;;;;;;4.95;3.50;;;17.70;99.90;;;;;;5040265;28;20612;-82
2022/07/22 01:11:25;;;;;;;7.03;3.50;;;17.70;99.90;;;;;;5026541;28;20196;-82
2022/07/22 01:13:52;;;;;;;6.90;3.83;;;17.70;99.90;;;;;;5033749;28;20668;-82
2022/07/22 01:16:18;;;;;;;6.32;3.85;;;17.60;99.90;;;;;;5000979;28;20193;-82
2022/07/22 01:18:44;;;;;;;5.18;3.45;;;17.60;99.90;;;;;;5016975;28;20187;-82
2022/07/22 01:21:11;;;;;;;5.60;3.45;;;17.60;99.90;;;;;;5035151;28;20208;-83
2022/07/22 01:23:37;;;;;;;5.97;3.40;;;17.60;99.90;;;;;;5017470;28;20247;-83
2022/07/22 01:26:04;;;;;;;7.80;3.47;;;17.60;99.90;;;;;;5035187;28;20661;-82
2022/07/22 01:28:30;;;;;;;5.72;3.72;;;17.50;99.90;;;;;;5034505;28;20176;-83
2022/07/22 01:30:55;;;;;;;6.40;3.45;;;17.50;99.90;;;;;;5000612;28;20227;-82
2022/07/22 01:33:23;;;;;;;6.65;3.60;;;17.50;99.90;;;;;;5035217;28;20235;-83
2022/07/22 01:35:50;;;;;;;7.00;3.38;;;17.50;99.90;;;;;;5035377;28;20656;-83
2022/07/22 01:38:17;;;;;;;7.18;3.30;;;17.50;99.90;;;;;;5034058;28;20228;-83
2022/07/22 01:40:44;;;;;;;5.90;3.13;;;17.50;99.90;;;;;;5034128;28;20176;-82
2022/07/22 01:43:10;;;;;;;7.10;3.65;;;17.40;99.90;;;;;;5042756;28;20209;-83
2022/07/22 01:45:36;;;;;;;8.23;3.67;;;17.40;99.90;;;;;;5042368;28;20175;-83
2022/07/22 01:48:02;;;;;;;6.35;3.78;;;17.40;99.90;;;;;;5043656;28;20244;-82
2022/07/22 01:50:28;;;;;;;7.05;3.60;;;17.40;99.90;;;;;;5042187;28;20180;-83
2022/07/22 01:52:55;;;;;;;6.65;3.55;;;17.30;99.90;;;;;;5036709;28;20223;-83
2022/07/22 01:55:20;;;;;;;7.22;3.60;;;17.30;99.90;;;;;;5035210;28;20184;-83
2022/07/22 01:57:46;;;;;;;6.93;3.88;;;17.30;99.90;;;;;;5035287;28;20185;-83
2022/07/22 02:00:12;;;;;;;7.10;3.28;;;17.20;99.90;;;;;;5038218;28;20689;-83
2022/07/22 02:02:38;;;;;;;5.55;3.30;;;17.20;99.90;;;;;;5036758;28;20204;-83
2022/07/22 02:05:05;;;;;;;5.57;3.47;;;17.10;99.90;;;;;;5017891;28;20184;-82
2022/07/22 02:07:31;;;;;;;4.80;3.45;;;17.10;99.90;;;;;;5034171;28;20181;-84
2022/07/22 02:09:57;;;;;;;5.68;3.60;;;17.10;99.90;;;;;;5000504;28;20657;-83
2022/07/22 02:12:23;;;;;;;4.70;3.50;;;17.10;99.90;;;;;;5016329;28;20212;-83
2022/07/22 02:14:49;;;;;;;7.15;3.72;;;17.10;99.90;;;;;;5032389;28;20185;-82
2022/07/22 02:17:15;;;;;;;10.45;4.25;;;17.10;99.90;;;;;;5033811;28;20177;-82
2022/07/22 02:19:41;;;;;;;5.70;3.55;;;17.10;99.90;;;;;;5032289;28;20318;-82
2022/07/22 02:22:06;;;;;;;7.03;4.25;;;17.00;99.90;;;;;;5032777;28;20271;-82
2022/07/22 02:24:32;;;;;;;7.15;4.00;;;17.00;99.90;;;;;;5033533;28;20207;-87
2022/07/22 02:26:58;;;;;;;6.90;3.90;;;17.00;99.90;;;;;;5032220;28;20760;-82
2022/07/22 02:29:24;;;;;;;6.47;3.80;;;17.00;99.90;;;;;;5033338;28;20232;-83
2022/07/22 02:31:50;;;;;;;7.75;3.78;;;17.00;99.90;;;;;;5033269;28;20234;-82
2022/07/22 02:34:15;;;;;;;5.35;4.03;;;17.00;99.90;;;;;;5015489;28;20313;-83
2022/07/22 02:36:41;;;;;;;5.38;3.47;;;16.90;99.90;;;;;;5033546;28;20255;-82
2022/07/22 02:39:07;;;;;;;4.90;3.33;;;16.90;99.90;;;;;;5015766;28;20184;-83
2022/07/22 02:41:33;;;;;;;4.43;3.35;;;16.90;99.90;;;;;;5015740;28;20183;-82
2022/07/22 02:43:59;;;;;;;4.32;2.90;;;16.90;99.90;;;;;;5032923;28;20567;-82
2022/07/22 02:46:25;;;;;;;7.55;4.45;;;16.90;99.90;;;;;;5033158;28;20296;-83
2022/07/22 02:48:51;;;;;;;6.30;3.80;;;16.90;99.90;;;;;;5015503;28;20192;-82
2022/07/22 02:51:17;;;;;;;11.52;3.75;;;16.90;99.90;;;;;;5015056;28;20188;-82
2022/07/22 02:53:42;;;;;;;11.80;3.90;;;16.80;99.90;;;;;;5031617;28;20219;-82
2022/07/22 02:56:08;;;;;;;6.38;3.90;;;16.80;99.90;;;;;;5033272;28;20653;-82
2022/07/22 02:58:34;;;;;;;6.60;3.40;;;16.80;99.90;;;;;;5032120;28;20191;-82
2022/07/22 03:00:59;;;;;;;10.05;4.07;;;16.80;99.90;;;;;;5032977;28;20173;-82
2022/07/22 03:03:25;;;;;;;6.78;3.67;;;16.80;99.90;;;;;;5032044;28;20185;-81
2022/07/22 03:05:51;;;;;;;8.27;4.00;;;16.80;99.90;;;;;;5033190;28;20208;-83
2022/07/22 03:08:17;;;;;;;6.68;3.88;;;16.80;99.90;;;;;;5015858;28;20638;-83
2022/07/22 03:10:42;;;;;;;6.72;4.07;;;16.80;99.90;;;;;;5031953;28;20339;-83
2022/07/22 03:13:08;;;;;;;8.10;3.85;;;16.80;99.90;;;;;;5015755;28;20729;-84
2022/07/22 03:15:33;;;;;;;7.32;3.63;;;16.80;99.90;;;;;;5033886;28;20184;-83
2022/07/22 03:17:59;;;;;;;8.20;4.03;;;16.80;99.90;;;;;;5032831;28;20184;-83
2022/07/22 03:20:25;;;;;;;9.65;3.50;;;16.80;99.90;;;;;;5015688;28;20657;-83
2022/07/22 03:22:50;;;;;;;7.78;3.40;;;16.90;99.90;;;;;;5032813;28;20278;-84
2022/07/22 03:25:16;;;;;;;5.32;3.85;;;16.90;99.90;;;;;;5032136;28;20188;-84
2022/07/22 03:27:42;;;;;;;5.38;3.35;;;16.90;99.90;;;;;;5015932;28;20181;-85
2022/07/22 03:30:08;;;;;;;5.90;3.08;;;17.00;99.90;;;;;;5006091;28;20364;-84
2022/07/22 03:32:33;;;;;;;7.97;3.80;;;17.00;99.90;;;;;;5013290;28;20201;-83
2022/07/22 03:34:59;;;;;;;6.18;3.83;;;17.10;99.90;;;;;;4995426;28;20181;-83
2022/07/22 03:37:24;;;;;;;8.55;3.92;;;17.10;99.90;;;;;;4995749;28;20504;-84
2022/07/22 03:39:50;;;;;;;5.82;3.63;;;17.10;99.90;;;;;;5012795;28;20188;-84
2022/07/22 03:42:16;;;;;;;5.05;3.33;;;17.30;99.90;;;;;;4979450;28;20236;-84
2022/07/22 03:44:41;;;;;;;9.05;3.58;;;17.20;99.90;;;;;;4995486;28;20568;-84
2022/07/22 03:47:07;;;;;;;6.60;3.42;;;17.40;99.90;;;;;;5016405;28;20188;-84
2022/07/22 03:49:32;;;;;;;9.55;4.32;;;17.40;99.90;;;;;;4964886;28;20189;-83
2022/07/22 03:51:58;;;;;;;4.25;3.08;;;17.50;99.90;;;;;;5013212;28;20679;-84
2022/07/22 03:54:24;;;;;;;5.57;3.95;;;17.50;99.90;;;;;;4995301;28;20190;-84
2022/07/22 03:56:50;;;;;;;7.20;4.10;;;17.60;99.90;;;;;;4995211;28;20228;-84
2022/07/22 03:59:16;;;;;;;5.38;3.17;;;17.70;99.90;;;;;;4979296;28;20637;-84
2022/07/22 04:01:42;;;;;;;8.20;3.60;;;17.70;99.90;;;;;;4995437;28;20192;-84
2022/07/22 04:04:08;;;;;;;6.40;3.70;;;17.80;99.90;;;;;;4997446;28;20181;-84
2022/07/22 04:06:34;;;;;;;7.72;3.17;;;17.90;99.90;;;;;;5016340;28;20182;-84
2022/07/22 04:08:59;;;;;;;7.32;4.00;;;18.00;99.90;;;;;;5016083;28;20181;-84
2022/07/22 04:11:26;;;;;;;4.88;3.55;;;18.00;99.90;;;;;;4998781;28;20232;-84
2022/07/22 04:13:52;;;;;;;5.97;2.72;;;18.10;99.90;;;;;;4998349;28;20303;-84
2022/07/22 04:16:18;;;;;;;4.50;2.72;;;18.20;99.90;;;;;;5016122;28;20510;-84
2022/07/22 04:18:44;;;;;;;6.63;3.70;;;18.20;99.90;;;;;;4998589;28;20181;-84
2022/07/22 04:21:09;;;;;;;6.85;3.75;;;18.40;99.90;;;;;;4998300;28;20668;-84
2022/07/22 04:23:35;;;;;;;6.35;3.25;;;18.50;99.90;;;;;;4998551;28;20208;-84
2022/07/22 04:26:01;;;;;;;3.65;2.90;;;18.60;99.90;;;;;;5015784;28;20514;-84
2022/07/22 04:28:27;;;;;;;6.22;3.45;;;18.70;99.90;;;;;;4998391;28;20264;-84
2022/07/22 04:30:52;;;;;;;3.47;2.50;;;18.80;99.90;;;;;;5031141;28;20236;-85
2022/07/22 04:33:18;;;;;;;7.40;4.35;;;18.90;99.90;;;;;;5017897;28;20236;-85
2022/07/22 04:35:44;;;;;;;4.55;3.33;;;19.10;99.90;;;;;;5035652;28;20185;-85
2022/07/22 04:38:09;;;;;;;4.93;3.03;;;19.20;99.90;;;;;;5017761;28;20173;-84
2022/07/22 04:40:35;;;;;;;6.50;3.15;;;19.30;99.90;;;;;;5035537;28;20230;-85
2022/07/22 04:43:01;;;;;;;3.83;3.10;;;19.40;99.90;;;;;;5035227;28;20180;-85
2022/07/22 04:45:26;;;;;;;5.40;2.90;;;19.60;99.90;;;;;;5017786;28;20188;-85
2022/07/22 04:47:52;;;;;;;5.18;3.20;;;19.60;99.90;;;;;;5033969;28;20176;-86
2022/07/22 04:50:18;;;;;;;5.20;2.85;;;19.80;99.90;;;;;;5017701;28;20224;-85
2022/07/22 04:52:44;;;;;;;9.93;3.47;;;19.90;99.90;;;;;;5035398;28;20212;-85
2022/07/22 04:55:09;;;;;;;11.80;3.47;;;20.00;99.90;;;;;;5017509;28;20260;-85
2022/07/22 04:57:35;;;;;;;3.25;2.47;;;20.10;99.90;;;;;;5017406;28;20177;-85
2022/07/22 05:00:00;;;;;;;6.85;3.20;;;20.30;99.90;;;;;;5034895;28;20604;-85
2022/07/22 05:02:26;;;;;;;7.55;3.72;;;20.40;99.90;;;;;;5017183;28;20180;-85
2022/07/22 05:04:52;;;;;;;4.72;2.60;;;20.50;99.90;;;;;;5035057;28;20622;-84
2022/07/22 05:07:17;;;;;;;9.68;3.72;;;20.60;99.90;;;;;;5033695;28;20195;-84
2022/07/22 05:09:43;;;;;;;5.80;3.17;;;20.70;99.90;;;;;;5033725;28;20680;-85
2022/07/22 05:12:09;;;;;;;6.25;2.95;;;20.80;99.90;;;;;;5017003;28;20544;-83
2022/07/22 05:14:34;;;;;;;7.85;3.88;;;20.90;99.90;;;;;;5016071;28;20272;-83
2022/07/22 05:17:00;;;;;;;4.70;2.90;;;21.00;99.90;;;;;;5016886;28;20212;-85
2022/07/22 05:19:25;;;;;;;4.55;2.95;;;21.20;99.90;;;;;;5017177;28;20183;-84
2022/07/22 05:21:51;;;;;;;4.38;3.15;;;21.30;99.90;;;;;;5017178;28;20181;-83
2022/07/22 05:24:16;;;;;;;7.63;3.60;;;21.40;99.90;;;;;;5016583;28;20271;-84
2022/07/22 05:26:42;;;;;;;3.97;3.13;;;21.60;99.90;;;;;;5016666;28;20169;-84
2022/07/22 05:29:08;;;;;;;4.70;2.63;;;21.80;99.90;;;;;;5033667;28;20189;-85
2022/07/22 05:31:33;;;;;;;5.47;2.67;;;21.90;99.90;;;;;;5017041;28;20176;-84
2022/07/22 05:33:59;;;;;;;5.05;2.67;;;22.10;99.90;;;;;;5033016;28;20231;-85
2022/07/22 05:36:25;;;;;;;3.95;3.10;;;22.20;99.90;;;;;;5033311;28;20173;-84
2022/07/22 05:38:51;;;;;;;3.80;2.42;;;22.30;99.90;;;;;;5034416;28;20271;-84
2022/07/22 05:41:16;;;;;;;6.53;3.83;;;22.40;99.90;;;;;;5016551;28;20228;-84
2022/07/22 05:43:42;;;;;;;6.20;3.58;;;22.50;99.90;;;;;;5015779;28;20641;-85
2022/07/22 05:46:08;;;;;;;4.57;2.80;;;22.60;99.90;;;;;;5032508;28;20180;-84
2022/07/22 05:48:33;;;;;;;5.10;3.28;;;22.70;99.90;;;;;;5031503;28;20181;-83
2022/07/22 05:50:59;;;;;;;6.30;2.75;;;22.80;99.90;;;;;;5032793;28;20187;-83
2022/07/22 05:53:25;;;;;;;6.22;2.75;;;23.00;99.90;;;;;;5025388;28;20296;-85
2022/07/22 05:55:50;;;;;;;4.88;2.60;;;23.10;99.90;;;;;;5014040;28;20512;-84
2022/07/22 05:58:16;;;;;;;3.78;2.28;;;23.20;99.90;;;;;;5013985;28;20184;-84
2022/07/22 06:00:42;;;;;;;2.53;2.05;;;23.20;99.90;;;;;;5032098;28;20173;-84
2022/07/22 06:03:07;;;;;;;2.58;1.77;;;23.30;99.90;;;;;;5031694;28;20196;-83
2022/07/22 06:05:35;;;;;;;2.70;2.00;;;23.40;99.90;;;;;;5032361;28;20180;-82
2022/07/22 06:08:01;;;;;;;3.28;2.25;;;23.40;99.90;;;;;;5014701;28;20184;-83
2022/07/22 06:10:27;;;;;;;4.20;2.60;;;23.60;99.90;;;;;;5031366;28;20688;-83
2022/07/22 06:12:53;;;;;;;4.15;2.45;;;23.70;99.90;;;;;;5006085;28;20208;-82
2022/07/22 06:15:18;;;;;;;3.83;2.13;;;23.80;99.90;;;;;;5031513;28;20571;-83
2022/07/22 06:17:44;;;;;;;3.83;2.10;;;23.90;99.90;;;;;;5014238;28;20242;-83
2022/07/22 06:20:10;;;;;;;2.63;2.05;;;24.00;99.90;;;;;;5031641;28;20701;-83
2022/07/22 06:22:35;;;;;;;2.38;1.80;;;24.40;99.90;;;;;;5015010;28;20267;-83
2022/07/22 06:25:01;;;;;;;4.15;2.08;;;24.20;99.90;;;;;;5031410;28;20538;-83
2022/07/22 06:27:27;;;;;;;2.70;2.10;;;24.40;99.90;;;;;;5030072;28;20185;-83
2022/07/22 06:29:52;;;;;;;2.50;2.00;;;24.40;99.90;;;;;;4998025;28;20700;-84
2022/07/22 06:32:18;;;;;;;1.90;1.52;;;24.60;99.90;;;;;;5030867;28;20172;-83
2022/07/22 06:34:43;;;;;;;2.85;2.00;;;24.70;99.90;;;;;;5037930;28;20191;-85
2022/07/22 06:37:10;;;;;;;4.15;2.45;;;24.70;99.90;;;;;;5012707;28;20203;-84
2022/07/22 06:39:35;;;;;;;4.78;1.95;;;24.80;99.90;;;;;;5013211;28;20552;-83
2022/07/22 06:42:01;;;;;;;4.05;2.15;;;24.90;99.90;;;;;;5014840;28;20188;-83
2022/07/22 06:44:26;;;;;;;3.90;1.83;;;25.00;99.90;;;;;;5022371;28;20192;-84
2022/07/22 06:46:52;;;;;;;3.13;2.20;;;25.10;99.90;;;;;;5015452;28;20504;-84
2022/07/22 06:49:18;;;;;;;4.15;2.25;;;25.20;99.90;;;;;;5015009;28;20180;-84
2022/07/22 06:51:43;;;;;;;2.70;2.25;;;25.20;99.90;;;;;;5015576;28;20211;-84
2022/07/22 06:54:09;;;;;;;2.30;1.67;;;25.30;99.90;;;;;;5032459;28;20212;-84
2022/07/22 06:56:34;;;;;;;2.75;2.20;;;25.40;99.90;;;;;;5032642;28;20180;-84
2022/07/22 06:59:00;;;;;;;3.63;2.22;;;25.40;99.90;;;;;;5021021;28;20188;-82
2022/07/22 07:01:25;;;;;;;5.35;2.30;;;25.60;99.90;;;;;;5037747;28;20541;-84
2022/07/22 07:03:51;;;;;;;4.20;1.95;;;25.70;99.90;;;;;;5017832;28;20503;-83
2022/07/22 07:06:17;;;;;;;2.42;2.17;;;25.70;99.90;;;;;;5016418;28;20192;-84
2022/07/22 07:08:42;;;;;;;8.05;2.78;;;25.80;99.90;;;;;;4998977;28;20189;-83
2022/07/22 07:11:08;;;;;;;5.20;2.42;;;25.80;99.90;;;;;;5015094;28;20172;-84
2022/07/22 07:13:34;;;;;;;4.22;2.17;;;25.90;99.90;;;;;;5014758;28;20208;-84
2022/07/22 07:15:59;;;;;;;4.25;2.72;;;26.10;99.90;;;;;;5032708;28;20526;-85
2022/07/22 07:18:25;;;;;;;3.95;2.22;;;26.20;99.90;;;;;;4998350;28;20184;-84
2022/07/22 07:20:51;;;;;;;3.58;2.83;;;26.30;99.90;;;;;;5014640;28;20545;-84
2022/07/22 07:23:16;;;;;;;4.00;2.05;;;26.30;99.90;;;;;;4998298;28;20184;-84
2022/07/22 07:25:42;;;;;;;3.40;2.58;;;26.40;99.90;;;;;;5014482;28;20208;-85
2022/07/22 07:28:08;;;;;;;1.80;1.52;;;26.50;99.90;;;;;;5014194;28;20193;-85
2022/07/22 07:30:34;;;;;;;2.60;2.00;;;26.60;99.90;;;;;;5014559;28;20227;-85
2022/07/22 07:33:00;;;;;;;2.20;1.70;;;26.70;99.90;;;;;;5030895;28;20562;-85
2022/07/22 07:35:26;;;;;;;2.45;1.92;;;26.80;99.90;;;;;;5032532;28;20185;-85
2022/07/22 07:37:52;;;;;;;3.22;1.90;;;26.90;99.90;;;;;;5033300;28;20615;-85
2022/07/22 07:40:18;;;;;;;3.35;1.77;;;27.00;99.90;;;;;;5033308;28;20189;-86
2022/07/22 07:42:44;;;;;;;2.83;1.98;;;27.10;99.90;;;;;;5034659;28;20176;-84
2022/07/22 07:45:10;;;;;;;2.60;1.92;;;27.20;99.90;;;;;;5034641;28;20212;-85
2022/07/22 07:47:36;;;;;;;2.58;2.30;;;27.30;99.90;;;;;;5050113;28;20180;-85
2022/07/22 07:50:03;;;;;;;4.57;2.30;;;27.40;99.90;;;;;;5017201;28;20259;-85
2022/07/22 07:52:29;;;;;;;3.45;1.67;;;27.50;99.90;;;;;;5033887;28;20263;-85
2022/07/22 07:54:58;;;;;;;6.35;1.67;;;27.50;99.90;;;;;;5034386;28;20176;-85
2022/07/22 07:57:23;;;;;;;2.92;1.83;;;27.60;99.90;;;;;;5036549;28;20177;-85
2022/07/22 07:59:49;;;;;;;3.65;2.20;;;27.50;99.90;;;;;;5019596;28;20211;-86
2022/07/22 08:02:14;;;;;;;2.17;1.67;;;27.60;99.90;;;;;;5019364;28;20181;-86
2022/07/22 08:04:40;;;;;;;5.82;1.92;;;27.70;99.90;;;;;;5018616;28;20175;-85
2022/07/22 08:07:06;;;;;;;1.88;1.60;;;27.70;99.90;;;;;;5018572;28;20512;-84
2022/07/22 08:09:35;;;;;;;8.13;2.45;;;27.60;99.90;;;;;;5035828;28;20184;-84
2022/07/22 08:12:00;;;;;;;4.88;2.00;;;27.50;99.90;;;;;;5019040;28;20635;-84
2022/07/22 08:14:26;;;;;;;3.92;2.15;;;27.50;99.90;;;;;;5036131;28;20204;-85
2022/07/22 08:16:52;;;;;;;4.18;2.05;;;27.50;99.90;;;;;;5036096;28;20172;-85
2022/07/22 08:19:17;;;;;;;3.42;1.80;;;27.50;99.90;;;;;;5018467;28;20201;-85
2022/07/22 08:21:43;;;;;;;4.75;1.63;;;27.60;99.90;;;;;;5017904;28;20283;-85
2022/07/22 08:24:09;;;;;;;2.58;1.70;;;27.70;99.90;;;;;;5018808;28;20211;-86
2022/07/22 08:26:36;;;;;;;2.90;1.88;;;27.70;99.90;;;;;;5018257;28;20177;-86
2022/07/22 08:29:02;;;;;;;3.28;1.90;;;27.80;99.40;;;;;;5036151;28;20168;-85
2022/07/22 08:31:28;;;;;;;2.58;1.42;;;28.00;98.70;;;;;;5035800;28;20549;-86
2022/07/22 08:33:54;;;;;;;2.15;1.77;;;28.10;98.60;;;;;;5035684;28;20212;-85
2022/07/22 08:36:19;;;;;;;2.65;1.73;;;28.20;96.70;;;;;;5029609;28;20648;-86
2022/07/22 08:38:45;;;;;;;3.15;2.35;;;28.40;96.20;;;;;;5018122;28;20267;-85
2022/07/22 08:41:13;;;;;;;3.03;2.03;;;28.50;96.50;;;;;;5018131;28;20285;-85
2022/07/22 08:43:42;;;;;;;3.45;2.10;;;28.60;97.70;;;;;;5017923;28;20526;-85
2022/07/22 08:46:08;;;;;;;2.45;2.00;;;28.70;98.00;;;;;;5019180;28;20204;-86
2022/07/22 08:48:37;;;;;;;2.08;1.70;;;28.80;94.40;;;;;;5035442;28;20211;-85
2022/07/22 08:51:02;;;;;;;2.03;1.70;;;28.90;94.00;;;;;;5014744;28;20169;-82
2022/07/22 08:53:28;;;;;;;2.47;1.70;;;29.00;95.50;;;;;;5038486;28;20214;-86
2022/07/22 08:55:54;;;;;;;5.30;2.47;;;29.10;94.80;;;;;;5054333;28;20175;-85
2022/07/22 08:58:20;;;;;;;2.83;2.10;;;29.20;93.70;;;;;;5053813;28;20176;-85
2022/07/22 09:00:45;;;;;;;2.70;2.10;;;29.20;93.20;;;;;;5036674;28;20176;-86
2022/07/22 09:03:27;;;;;;;2.20;1.70;;;29.20;92.90;;;;;;5047659;28;20178;-86
2022/07/22 09:05:53;;;;;;;4.13;1.67;;;29.30;93.30;;;;;;5035144;28;20617;-86
2022/07/22 09:08:20;;;;;;;5.90;2.03;;;29.30;92.70;;;;;;5035647;28;20195;-86
2022/07/22 09:10:46;;;;;;;2.45;1.63;;;29.40;91.50;;;;;;5033467;28;20181;-86
2022/07/22 09:13:13;;;;;;;2.47;1.95;;;29.60;90.70;;;;;;5033405;28;20278;-86
2022/07/22 09:15:49;;;;;;;2.55;1.60;;;29.60;90.40;;;;;;5016917;28;20315;-87
2022/07/22 09:18:15;;;;;;;5.15;1.65;;;29.80;88.20;;;;;;5016770;28;20178;-86
2022/07/22 09:20:41;;;;;;;3.60;1.55;;;29.90;83.10;;;;;;4984083;28;20262;-85
2022/07/22 09:23:17;;;;;;;3.53;2.15;;;29.90;86.50;;;;;;5016260;28;20212;-85
2022/07/22 09:25:43;;;;;;;2.05;1.77;;;30.00;86.10;;;;;;5031664;28;20164;-86
2022/07/22 09:28:12;;;;;;;3.50;1.83;;;30.10;82.60;;;;;;5000149;28;20188;-87
2022/07/22 09:30:45;;;;;;;2.78;1.73;;;30.10;83.60;;;;;;5033168;28;20224;-87
2022/07/22 09:33:10;;;;;;;3.03;1.90;;;30.10;82.30;;;;;;5015459;28;20227;-87
2022/07/22 09:35:37;;;;;;;2.90;2.10;;;30.20;82.50;;;;;;5032673;28;20211;-86
2022/07/22 09:38:05;;;;;;;3.42;1.67;;;30.20;85.00;;;;;;5031778;28;20177;-86
2022/07/22 09:40:36;;;;;;;4.43;2.20;;;30.40;83.50;;;;;;5014983;28;20173;-86
2022/07/22 09:43:04;;;;;;;3.25;2.03;;;30.50;84.70;;;;;;5028240;28;20196;-86
2022/07/22 09:45:32;;;;;;;4.45;1.90;;;30.70;80.50;;;;;;5032609;28;20219;-86
2022/07/22 09:48:00;;;;;;;5.50;1.48;;;30.80;78.20;;;;;;5035038;28;20216;-86
2022/07/22 09:50:30;;;;;;;1.75;1.35;;;30.80;77.50;;;;;;5015725;28;20177;-86
2022/07/22 09:52:57;;;;;;;3.67;1.90;;;30.80;76.70;;;;;;5033362;28;20215;-87
2022/07/22 09:55:25;;;;;;;3.70;2.03;;;31.00;74.20;;;;;;5015726;28;20339;-86
2022/07/22 09:57:52;;;;;;;2.08;1.63;;;31.10;74.00;;;;;;5032866;28;20179;-85
2022/07/22 10:00:20;;;;;;;2.95;1.92;;;30.90;70.40;;;;;;5033240;28;20184;-86
2022/07/22 10:02:47;;;;;;;2.38;1.88;;;31.00;71.40;;;;;;5014906;28;20229;-86
2022/07/22 10:05:14;;;;;;;2.75;2.03;;;31.00;73.20;;;;;;5015660;28;20621;-86
2022/07/22 10:07:42;;;;;;;2.50;1.98;;;31.20;72.20;;;;;;5017274;28;20235;-86
2022/07/22 10:10:09;;;;;;;2.45;1.90;;;31.30;70.90;;;;;;5035374;28;20173;-86
2022/07/22 10:12:37;;;;;;;7.47;2.25;;;31.30;69.90;;;;;;5041096;28;20288;-87
2022/07/22 10:15:03;;;;;;;2.25;1.98;;;31.30;69.00;;;;;;5032544;28;20239;-86
2022/07/22 10:17:30;;;;;;;3.10;2.15;;;31.50;71.40;;;;;;5015642;28;20441;-86
2022/07/22 10:19:57;;;;;;;2.97;2.25;;;31.40;67.80;;;;;;5033299;28;20183;-87
2022/07/22 10:22:47;;;;;;;3.83;2.20;;;31.50;67.20;;;;;;5031955;28;20199;-87
2022/07/22 10:25:14;;;;;;;3.50;2.22;;;31.50;68.20;;;;;;5025887;28;20183;-87
2022/07/22 10:27:50;;;;;;;3.38;2.65;;;31.60;67.40;;;;;;5031008;28;20177;-87
2022/07/22 10:30:33;;;;;;;2.30;1.98;;;31.70;67.90;;;;;;5005470;28;20282;-87
2022/07/22 10:33:08;;;;;;;3.05;1.80;;;31.90;69.40;;;;;;5014589;28;20208;-86
2022/07/22 10:35:36;;;;;;;4.60;2.17;;;32.20;65.90;;;;;;4991842;28;20264;-87
2022/07/22 10:38:05;;;;;;;2.20;1.90;;;32.20;66.20;;;;;;5006973;28;20177;-86
2022/07/22 10:40:52;;;;;;;2.92;1.70;;;32.30;65.80;;;;;;5013416;28;20181;-86
2022/07/22 10:43:29;;;;;;;6.43;1.98;;;32.50;65.90;;;;;;5012739;28;20193;-85
2022/07/22 10:46:02;;;;;;;3.38;1.73;;;32.60;63.40;;;;;;4995223;28;20188;-85
2022/07/22 10:48:37;;;;;;;3.40;2.05;;;32.60;61.20;;;;;;5011060;28;20177;-86
2022/07/22 10:51:17;;;;;;;2.03;1.80;;;32.50;59.40;;;;;;4994292;28;20676;-86
2022/07/22 10:53:54;;;;;;;4.18;2.65;;;32.40;59.40;;;;;;4993582;28;20205;-85
2022/07/22 10:56:26;;;;;;;3.00;1.65;;;32.40;59.00;;;;;;4994168;28;20184;-86
2022/07/22 10:59:21;;;;;;;3.08;2.33;;;32.20;59.40;;;;;;4976243;28;20213;-85
2022/07/22 11:01:50;;;;;;;3.75;2.47;;;32.30;62.90;;;;;;4991117;28;20285;-86
2022/07/22 11:04:17;;;;;;;2.17;1.83;;;32.20;60.60;;;;;;4976565;28;20186;-85
2022/07/22 11:06:43;;;;;;;4.07;2.58;;;32.50;61.90;;;;;;4992399;28;20244;-86
2022/07/22 11:09:11;;;;;;;3.40;1.92;;;32.70;60.10;;;;;;4993690;28;20177;-85
2022/07/22 11:11:44;;;;;;;3.90;2.47;;;32.80;58.90;;;;;;5012042;28;20181;-85
2022/07/22 11:14:17;;;;;;;3.03;1.95;;;32.70;58.40;;;;;;4998349;28;20268;-86
2022/07/22 11:16:44;;;;;;;2.50;2.00;;;32.60;59.20;;;;;;5015151;28;20264;-86
2022/07/22 11:19:10;;;;;;;2.28;1.92;;;32.80;59.10;;;;;;4998915;28;20194;-87
2022/07/22 11:21:36;;;;;;;3.38;2.03;;;32.90;58.20;;;;;;5017208;28;20181;-86
2022/07/22 11:24:05;;;;;;;2.05;1.85;;;32.90;58.60;;;;;;4998708;28;20642;-86
2022/07/22 11:26:48;;;;;;;2.38;1.80;;;32.80;58.30;;;;;;4998907;28;20216;-85
2022/07/22 11:29:35;;;;;;;2.15;1.73;;;32.70;59.60;;;;;;5017937;28;20168;-86
2022/07/22 11:32:03;;;;;;;2.92;1.67;;;32.60;57.40;;;;;;5035959;28;20413;-86
2022/07/22 11:34:29;;;;;;;2.67;1.88;;;32.70;59.30;;;;;;5036070;28;20239;-85
2022/07/22 11:36:56;;;;;;;3.55;1.95;;;33.00;60.30;;;;;;5018482;28;20172;-85
2022/07/22 11:39:25;;;;;;;4.97;2.08;;;33.20;60.40;;;;;;5020068;28;20217;-84
2022/07/22 11:41:52;;;;;;;5.43;2.30;;;33.30;57.80;;;;;;5036112;28;20218;-85
2022/07/22 11:44:31;;;;;;;2.78;1.77;;;33.50;59.40;;;;;;5037279;28;20192;-85
2022/07/22 11:47:00;;;;;;;4.03;2.75;;;33.50;57.70;;;;;;5037125;28;20172;-85
2022/07/22 11:49:34;;;;;;;5.53;1.98;;;33.50;58.90;;;;;;5021079;28;20188;-86
2022/07/22 11:52:01;;;;;;;5.07;2.35;;;33.60;58.30;;;;;;5020367;28;20226;-85
2022/07/22 11:54:27;;;;;;;5.10;2.20;;;33.70;57.60;;;;;;5056374;28;20262;-89
2022/07/22 11:56:53;;;;;;;3.60;1.73;;;33.60;57.60;;;;;;5056788;28;20180;-87
2022/07/22 11:59:19;;;;;;;5.05;2.10;;;33.50;57.00;;;;;;5057534;28;20169;-88
2022/07/22 12:01:46;;;;;;;4.32;2.38;;;33.50;58.30;;;;;;5037963;28;20207;-89
2022/07/22 12:04:23;;;;;;;7.13;2.03;;;33.50;57.20;;;;;;5040896;28;20217;-87
2022/07/22 12:06:49;;;;;;;2.47;1.85;;;33.40;56.90;;;;;;5037773;28;20161;-87
2022/07/22 12:09:20;;;;;;;3.88;2.10;;;33.20;57.30;;;;;;5058214;28;20203;-85
2022/07/22 12:11:47;;;;;;;2.42;2.17;;;33.20;58.50;;;;;;5041692;28;20177;-85
2022/07/22 12:14:14;;;;;;;2.47;1.88;;;33.20;57.30;;;;;;5032580;28;20209;-86
2022/07/22 12:16:41;;;;;;;3.33;2.15;;;33.20;58.20;;;;;;5034490;28;20264;-86
2022/07/22 12:19:12;;;;;;;2.10;1.70;;;33.10;56.60;;;;;;4997156;28;21028;-85
2022/07/22 12:21:58;;;;;;;3.55;2.20;;;33.10;57.10;;;;;;5034856;28;20227;-85
2022/07/22 12:24:27;;;;;;;4.00;2.08;;;32.90;56.60;;;;;;5016317;28;20188;-85
2022/07/22 12:26:54;;;;;;;3.67;2.22;;;32.70;57.40;;;;;;5034797;28;20210;-85
2022/07/22 12:29:24;;;;;;;4.50;1.73;;;32.60;58.00;;;;;;5033525;28;20184;-84
2022/07/22 12:31:53;;;;;;;5.38;2.97;;;32.80;57.80;;;;;;5032586;28;20188;-85
2022/07/22 12:34:54;;;;;;;3.63;2.58;;;32.80;56.60;;;;;;5034701;28;20208;-84
2022/07/22 12:37:21;;;;;;;4.32;1.95;;;33.00;56.60;;;;;;5020292;28;20189;-84
2022/07/22 12:40:04;;;;;;;3.20;2.50;;;33.00;56.60;;;;;;5034831;28;20259;-84
2022/07/22 12:42:34;;;;;;;3.25;2.33;;;33.20;59.80;;;;;;5017138;28;20576;-85
2022/07/22 12:45:04;;;;;;;2.15;1.95;;;33.10;56.60;;;;;;5036615;28;20208;-84